createdAt,value
2022-10-19T00:00:34.303Z,14.49
2022-10-19T00:03:26.219Z,14.64
2022-10-19T00:05:58.431Z,14.61
2022-10-19T00:08:30.461Z,14.67
2022-10-19T00:11:03.582Z,14.75
2022-10-19T00:13:35.986Z,14.79
2022-10-19T00:16:13.475Z,14.63
2022-10-19T00:18:46.692Z,14.79
2022-10-19T00:21:20.942Z,14.77
2022-10-19T00:23:53.543Z,14.83
2022-10-19T00:26:25.881Z,14.83
2022-10-19T00:28:59.121Z,14.80
2022-10-19T00:31:31.029Z,14.83
2022-10-19T00:34:03.116Z,14.82
2022-10-19T00:36:37.902Z,14.77
2022-10-19T00:39:09.213Z,14.74
2022-10-19T00:41:41.737Z,14.76
2022-10-19T00:44:44.221Z,14.77
2022-10-19T00:47:16.541Z,14.67
2022-10-19T00:49:49.498Z,14.74
2022-10-19T00:52:25.140Z,14.85
2022-10-19T00:54:59.030Z,14.74
2022-10-19T00:57:32.650Z,14.63
2022-10-19T01:00:09.071Z,14.73
2022-10-19T01:02:43.959Z,14.74
2022-10-19T01:05:16.717Z,14.73
2022-10-19T01:07:50.146Z,14.76
2022-10-19T01:10:25.991Z,14.59
2022-10-19T01:13:22.425Z,14.56
2022-10-19T01:16:04.974Z,14.66
2022-10-19T01:18:46.099Z,14.70
2022-10-19T01:21:27.445Z,14.56
2022-10-19T01:24:37.120Z,14.45
2022-10-19T01:27:44.037Z,14.57
2022-10-19T01:30:22.943Z,14.69
2022-10-19T01:33:10.511Z,14.69
2022-10-19T01:35:52.027Z,14.71
2022-10-19T01:38:34.576Z,14.65
2022-10-19T01:41:16.716Z,14.60
2022-10-19T01:43:56.508Z,14.63
2022-10-19T01:46:33.656Z,14.59
2022-10-19T01:49:13.591Z,14.54
2022-10-19T01:51:51.234Z,14.57
2022-10-19T01:54:26.193Z,14.40
2022-10-19T01:56:58.211Z,14.29
2022-10-19T01:59:31.432Z,14.37
2022-10-19T02:02:06.963Z,14.55
2022-10-19T02:04:41.531Z,14.57
2022-10-19T02:07:14.366Z,14.58
2022-10-19T02:09:46.345Z,14.56
2022-10-19T02:12:21.906Z,14.52
2022-10-19T02:14:59.019Z,14.41
2022-10-19T02:17:35.839Z,14.47
2022-10-19T02:20:09.450Z,14.51
2022-10-19T02:22:41.735Z,14.52
2022-10-19T02:25:14.913Z,14.36
2022-10-19T02:27:47.731Z,14.45
2022-10-19T02:30:21.849Z,14.36
2022-10-19T02:32:53.964Z,14.37
2022-10-19T02:35:26.014Z,14.39
2022-10-19T02:38:02.951Z,14.41
2022-10-19T02:40:38.680Z,14.48
2022-10-19T02:43:15.269Z,14.37
2022-10-19T02:45:53.990Z,14.32
2022-10-19T02:48:30.035Z,14.33
2022-10-19T02:51:02.871Z,14.29
2022-10-19T02:53:35.085Z,14.32
2022-10-19T02:56:09.449Z,14.30
2022-10-19T02:58:41.603Z,14.21
2022-10-19T03:01:16.318Z,14.24
2022-10-19T03:03:48.606Z,14.35
2022-10-19T03:06:20.770Z,14.33
2022-10-19T03:08:54.217Z,14.39
2022-10-19T03:11:27.148Z,14.34
2022-10-19T03:14:06.937Z,14.32
2022-10-19T03:16:44.443Z,14.37
2022-10-19T03:19:18.903Z,14.21
2022-10-19T03:21:51.207Z,14.17
2022-10-19T03:24:23.098Z,14.21
2022-10-19T03:26:55.416Z,14.17
2022-10-19T03:29:27.614Z,14.37
2022-10-19T03:31:59.743Z,14.31
2022-10-19T03:34:31.954Z,14.25
2022-10-19T03:37:03.928Z,14.31
2022-10-19T03:39:36.161Z,14.33
2022-10-19T03:42:09.020Z,14.28
2022-10-19T03:44:40.923Z,14.20
2022-10-19T03:47:12.866Z,14.21
2022-10-19T03:49:44.755Z,14.17
2022-10-19T03:52:16.766Z,14.16
2022-10-19T03:54:50.978Z,14.15
2022-10-19T03:57:23.116Z,14.14
2022-10-19T03:59:54.991Z,14.12
2022-10-19T04:02:27.007Z,14.06
2022-10-19T04:04:58.866Z,14.07
2022-10-19T04:07:30.961Z,14.08
2022-10-19T04:10:02.966Z,14.01
2022-10-19T04:12:35.791Z,14.03
2022-10-19T04:15:08.995Z,14.04
2022-10-19T04:17:41.217Z,13.98
2022-10-19T04:20:14.340Z,14.03
2022-10-19T04:22:46.278Z,13.99
2022-10-19T04:25:18.510Z,14.11
2022-10-19T04:27:50.682Z,14.10
2022-10-19T04:30:22.690Z,14.16
2022-10-19T04:32:54.863Z,14.16
2022-10-19T04:35:27.180Z,14.14
2022-10-19T04:37:59.598Z,14.09
2022-10-19T04:40:31.679Z,13.99
2022-10-19T04:43:03.699Z,13.96
2022-10-19T04:45:37.596Z,13.99
2022-10-19T04:48:09.784Z,14.01
2022-10-19T04:50:41.728Z,13.98
2022-10-19T04:53:13.769Z,14.04
2022-10-19T04:55:45.955Z,13.93
2022-10-19T04:58:18.216Z,13.84
2022-10-19T05:00:50.382Z,13.88
2022-10-19T05:03:22.330Z,13.98
2022-10-19T05:05:54.192Z,13.90
2022-10-19T05:08:26.343Z,13.92
2022-10-19T05:11:01.224Z,13.90
2022-10-19T05:13:34.203Z,13.87
2022-10-19T05:16:08.251Z,13.90
2022-10-19T05:18:40.402Z,13.91
2022-10-19T05:21:14.162Z,13.95
2022-10-19T05:23:46.496Z,14.00
2022-10-19T05:26:20.431Z,13.99
2022-10-19T05:28:56.565Z,13.95
2022-10-19T05:31:30.649Z,13.94
2022-10-19T05:34:04.551Z,13.87
2022-10-19T05:36:38.896Z,13.89
2022-10-19T05:39:14.342Z,14.02
2022-10-19T05:41:47.764Z,13.93
2022-10-19T05:44:22.661Z,13.96
2022-10-19T05:46:54.838Z,13.78
2022-10-19T05:49:27.570Z,13.76
2022-10-19T05:51:59.561Z,13.70
2022-10-19T05:54:32.074Z,13.79
2022-10-19T05:57:04.250Z,13.74
2022-10-19T05:59:36.769Z,13.81
2022-10-19T06:02:14.144Z,13.70
2022-10-19T06:04:46.076Z,13.75
2022-10-19T06:07:17.970Z,13.84
2022-10-19T06:09:50.108Z,13.85
2022-10-19T06:12:24.970Z,13.85
2022-10-19T06:14:57.232Z,13.66
2022-10-19T06:17:30.929Z,13.67
2022-10-19T06:20:02.951Z,13.62
2022-10-19T06:22:34.880Z,13.61
2022-10-19T06:25:07.983Z,13.46
2022-10-19T06:27:40.162Z,13.57
2022-10-19T06:30:13.696Z,13.59
2022-10-19T06:32:46.214Z,13.72
2022-10-19T06:35:18.422Z,13.72
2022-10-19T06:37:50.796Z,13.78
2022-10-19T06:40:23.023Z,13.79
2022-10-19T06:42:55.729Z,13.81
2022-10-19T06:45:31.115Z,13.72
2022-10-19T06:48:07.666Z,13.72
2022-10-19T06:50:40.122Z,13.74
2022-10-19T06:53:12.118Z,13.65
2022-10-19T06:55:44.229Z,13.70
2022-10-19T06:58:16.233Z,13.75
2022-10-19T07:00:57.231Z,13.68
2022-10-19T07:03:30.850Z,13.56
2022-10-19T07:06:05.769Z,13.58
2022-10-19T07:08:36.968Z,13.55
2022-10-19T07:11:11.204Z,13.59
2022-10-19T07:13:43.241Z,13.66
2022-10-19T07:16:20.587Z,13.74
2022-10-19T07:18:54.213Z,13.71
2022-10-19T07:21:26.345Z,13.67
2022-10-19T07:23:58.258Z,13.70
2022-10-19T07:26:31.462Z,13.65
2022-10-19T07:29:04.222Z,13.64
2022-10-19T07:31:36.443Z,13.72
2022-10-19T07:34:11.332Z,13.72
2022-10-19T07:36:45.613Z,13.70
2022-10-19T07:39:18.313Z,13.82
2022-10-19T07:41:50.348Z,13.88
2022-10-19T07:44:22.656Z,13.83
2022-10-19T07:46:54.858Z,13.82
2022-10-19T07:49:26.982Z,13.93
2022-10-19T07:51:59.184Z,13.85
2022-10-19T07:54:31.447Z,13.91
2022-10-19T07:57:03.922Z,13.86
2022-10-19T07:59:36.880Z,13.67
2022-10-19T08:02:15.003Z,13.66
2022-10-19T08:05:07.366Z,13.70
2022-10-19T08:07:39.710Z,13.75
2022-10-19T08:10:12.593Z,13.85
2022-10-19T08:12:44.562Z,13.82
2022-10-19T08:15:16.796Z,13.79
2022-10-19T08:17:48.678Z,13.80
2022-10-19T08:20:20.648Z,13.85
2022-10-19T08:22:56.442Z,13.91
2022-10-19T08:25:30.849Z,13.86
2022-10-19T08:28:03.167Z,13.91
2022-10-19T08:30:37.315Z,13.94
2022-10-19T08:33:12.525Z,13.95
2022-10-19T08:35:44.611Z,13.90
2022-10-19T08:38:16.670Z,13.73
2022-10-19T08:40:48.995Z,13.73
2022-10-19T08:43:30.603Z,13.64
2022-10-19T08:46:12.741Z,13.72
2022-10-19T08:48:46.638Z,13.71
2022-10-19T08:51:18.793Z,13.91
2022-10-19T08:53:56.878Z,13.99
2022-10-19T08:56:49.990Z,14.08
2022-10-19T08:59:34.834Z,14.11
2022-10-19T09:02:16.014Z,14.13
2022-10-19T09:04:55.074Z,14.11
2022-10-19T09:07:30.430Z,14.02
2022-10-19T09:10:05.926Z,14.00
2022-10-19T09:12:46.656Z,14.06
2022-10-19T09:15:23.234Z,14.10
2022-10-19T09:17:55.068Z,14.25
2022-10-19T09:20:33.410Z,14.23
2022-10-19T09:23:13.518Z,14.24
2022-10-19T09:25:45.569Z,14.19
2022-10-19T09:28:36.622Z,14.15
2022-10-19T09:31:18.187Z,14.27
2022-10-19T09:33:55.654Z,14.32
2022-10-19T09:36:50.363Z,14.25
2022-10-19T09:39:25.695Z,14.28
2022-10-19T09:42:19.708Z,14.35
2022-10-19T09:44:53.215Z,14.06
2022-10-19T09:47:33.674Z,14.28
2022-10-19T09:50:19.159Z,14.41
2022-10-19T09:52:50.059Z,14.50
2022-10-19T09:55:29.619Z,14.51
2022-10-19T09:58:07.510Z,14.52
2022-10-19T10:00:42.557Z,14.52
2022-10-19T10:03:27.145Z,14.51
2022-10-19T10:06:03.322Z,14.43
2022-10-19T10:08:38.948Z,14.34
2022-10-19T10:11:14.357Z,14.43
2022-10-19T10:13:51.760Z,14.52
2022-10-19T10:16:26.983Z,14.58
2022-10-19T10:19:00.825Z,14.68
2022-10-19T10:21:36.516Z,14.63
2022-10-19T10:24:19.777Z,14.69
2022-10-19T10:26:54.674Z,14.65
2022-10-19T10:29:29.024Z,14.66
2022-10-19T10:32:05.333Z,14.55
2022-10-19T10:34:58.361Z,14.64
2022-10-19T10:37:40.117Z,14.70
2022-10-19T10:40:23.813Z,14.84
2022-10-19T10:43:03.052Z,14.80
2022-10-19T10:45:43.626Z,14.64
2022-10-19T10:48:28.285Z,14.75
2022-10-19T10:51:01.886Z,14.71
2022-10-19T10:53:39.882Z,14.69
2022-10-19T10:56:27.301Z,14.71
2022-10-19T10:59:04.105Z,14.74
2022-10-19T11:01:42.253Z,14.76
2022-10-19T11:04:20.068Z,14.70
2022-10-19T11:06:59.049Z,14.40
2022-10-19T11:09:36.892Z,14.23
2022-10-19T11:12:14.988Z,14.18
2022-10-19T11:14:50.842Z,14.16
2022-10-19T11:17:26.990Z,14.07
2022-10-19T11:19:59.540Z,14.16
2022-10-19T11:22:39.467Z,14.23
2022-10-19T11:25:27.748Z,14.27
2022-10-19T11:28:22.688Z,14.25
2022-10-19T11:31:03.544Z,14.31
2022-10-19T11:33:49.861Z,14.24
2022-10-19T11:36:40.246Z,14.25
2022-10-19T11:39:37.128Z,14.27
2022-10-19T11:42:20.134Z,14.35
2022-10-19T11:45:04.544Z,14.43
2022-10-19T11:47:56.472Z,14.59
2022-10-19T11:50:46.600Z,14.70
2022-10-19T11:53:37.828Z,14.74
2022-10-19T11:56:14.751Z,14.96
2022-10-19T11:58:58.184Z,14.97
2022-10-19T12:01:47.710Z,14.87
2022-10-19T12:04:35.604Z,15.03
2022-10-19T12:07:21.240Z,15.03
2022-10-19T12:10:04.642Z,15.15
2022-10-19T12:12:40.066Z,15.13
2022-10-19T12:15:30.738Z,15.01
2022-10-19T12:18:11.880Z,14.88
2022-10-19T12:20:50.205Z,14.98
2022-10-19T12:23:29.843Z,15.16
2022-10-19T12:26:04.868Z,15.23
2022-10-19T12:28:40.175Z,15.33
2022-10-19T12:31:13.898Z,15.52
2022-10-19T12:33:50.809Z,15.63
2022-10-19T12:36:33.205Z,15.67
2022-10-19T12:39:13.453Z,15.64
2022-10-19T12:41:53.876Z,15.59
2022-10-19T12:45:05.996Z,15.33
2022-10-19T12:47:38.119Z,15.37
2022-10-19T12:50:10.900Z,15.31
2022-10-19T12:52:46.034Z,15.57
2022-10-19T12:55:34.738Z,15.79
2022-10-19T12:58:20.530Z,15.69
2022-10-19T13:01:02.674Z,15.59
2022-10-19T13:03:38.015Z,15.41
2022-10-19T13:06:14.765Z,15.58
2022-10-19T13:08:56.558Z,15.52
2022-10-19T13:11:28.976Z,15.46
2022-10-19T13:14:04.146Z,15.44
2022-10-19T13:16:43.240Z,15.40
2022-10-19T13:19:23.168Z,15.44
2022-10-19T13:22:03.854Z,15.47
2022-10-19T13:24:38.006Z,15.42
2022-10-19T13:27:37.409Z,15.34
2022-10-19T13:30:52.983Z,15.44
2022-10-19T13:33:55.446Z,15.52
2022-10-19T13:36:28.325Z,15.50
2022-10-19T13:39:16.962Z,15.61
2022-10-19T13:41:53.045Z,15.65
2022-10-19T13:44:29.004Z,15.52
2022-10-19T13:47:31.588Z,15.64
2022-10-19T13:50:32.423Z,15.66
2022-10-19T13:53:33.444Z,15.58
2022-10-19T13:56:33.834Z,15.56
2022-10-19T13:59:53.832Z,15.63
2022-10-19T14:02:59.158Z,15.55
2022-10-19T14:05:48.521Z,15.46
2022-10-19T14:08:57.572Z,15.40
2022-10-19T14:11:32.878Z,15.32
2022-10-19T14:14:16.225Z,15.18
2022-10-19T14:17:04.138Z,15.15
2022-10-19T14:19:47.219Z,15.08
2022-10-19T14:22:30.260Z,15.00
2022-10-19T14:25:08.691Z,14.88
2022-10-19T14:27:41.186Z,14.81
2022-10-19T14:30:25.867Z,14.94
2022-10-19T14:33:02.188Z,14.96
2022-10-19T14:35:37.709Z,14.87
2022-10-19T14:38:16.800Z,14.82
2022-10-19T14:40:48.845Z,14.76
2022-10-19T14:43:24.648Z,14.77
2022-10-19T14:46:22.760Z,14.78
2022-10-19T14:49:02.861Z,14.87
2022-10-19T14:51:41.816Z,14.92
2022-10-19T14:54:21.965Z,14.93
2022-10-19T14:56:57.232Z,14.85
2022-10-19T14:59:33.101Z,14.98
2022-10-19T15:02:12.946Z,14.96
2022-10-19T15:04:45.367Z,15.02
2022-10-19T15:07:25.160Z,15.01
2022-10-19T15:10:00.065Z,15.00
2022-10-19T15:12:38.473Z,15.03
2022-10-19T15:15:18.282Z,14.98
2022-10-19T15:17:56.033Z,14.91
2022-10-19T15:20:36.377Z,14.91
2022-10-19T15:23:34.241Z,14.79
2022-10-19T15:26:17.602Z,14.84
2022-10-19T15:28:50.767Z,14.79
2022-10-19T15:31:26.533Z,14.74
2022-10-19T15:34:05.388Z,14.66
2022-10-19T15:36:37.438Z,14.68
2022-10-19T15:39:33.019Z,14.63
2022-10-19T15:42:37.548Z,14.62
2022-10-19T15:45:33.502Z,14.55
2022-10-19T15:48:49.940Z,14.57
2022-10-19T15:51:52.452Z,14.56
2022-10-19T15:54:24.697Z,14.54
2022-10-19T15:56:57.455Z,14.52
2022-10-19T15:59:29.424Z,14.46
2022-10-19T16:02:01.548Z,14.46
2022-10-19T16:04:33.612Z,14.41
2022-10-19T16:07:05.641Z,14.39
2022-10-19T16:09:37.527Z,14.37
2022-10-19T16:12:10.258Z,14.32
2022-10-19T16:14:43.490Z,14.27
2022-10-19T16:17:16.627Z,14.25
2022-10-19T16:19:49.044Z,14.19
2022-10-19T16:22:21.379Z,14.12
2022-10-19T16:24:53.891Z,14.03
2022-10-19T16:27:26.645Z,14.02
2022-10-19T16:29:58.904Z,13.96
2022-10-19T16:32:32.334Z,13.93
2022-10-19T16:35:04.717Z,13.86
2022-10-19T16:37:37.173Z,13.77
2022-10-19T16:40:11.605Z,13.79
2022-10-19T16:42:43.551Z,13.71
2022-10-19T16:45:15.678Z,13.58
2022-10-19T16:47:52.144Z,13.64
2022-10-19T16:50:25.137Z,13.61
2022-10-19T16:53:10.786Z,13.58
2022-10-19T16:55:44.556Z,13.52
2022-10-19T16:58:16.543Z,13.47
2022-10-19T17:00:49.054Z,13.42
2022-10-19T17:03:21.219Z,13.37
2022-10-19T17:05:53.656Z,13.32
2022-10-19T17:08:36.769Z,13.28
2022-10-19T17:11:18.179Z,13.24
2022-10-19T17:13:52.349Z,13.20
2022-10-19T17:16:25.427Z,13.14
2022-10-19T17:18:59.498Z,13.11
2022-10-19T17:21:34.537Z,13.08
2022-10-19T17:24:08.139Z,13.07
2022-10-19T17:26:43.225Z,13.02
2022-10-19T17:29:15.644Z,12.97
2022-10-19T17:31:48.046Z,12.95
2022-10-19T17:34:20.232Z,12.94
2022-10-19T17:36:52.324Z,12.90
2022-10-19T17:39:29.109Z,12.86
2022-10-19T17:42:03.363Z,12.83
2022-10-19T17:44:35.518Z,12.79
2022-10-19T17:47:07.547Z,12.76
2022-10-19T17:49:41.134Z,12.75
2022-10-19T17:52:13.203Z,12.73
2022-10-19T17:54:54.751Z,12.70
2022-10-19T17:57:38.809Z,12.66
2022-10-19T18:00:12.573Z,12.63
2022-10-19T18:02:46.819Z,12.59
2022-10-19T18:05:19.084Z,12.58
2022-10-19T18:07:51.562Z,12.53
2022-10-19T18:10:23.713Z,12.48
2022-10-19T18:12:55.693Z,12.45
2022-10-19T18:15:27.537Z,12.41
2022-10-19T18:18:01.134Z,12.35
2022-10-19T18:20:33.022Z,12.27
2022-10-19T18:23:04.952Z,12.15
2022-10-19T18:25:53.332Z,12.23
2022-10-19T18:28:26.044Z,12.18
2022-10-19T18:30:58.272Z,12.14
2022-10-19T18:33:58.072Z,12.11
2022-10-19T18:36:30.898Z,12.06
2022-10-19T18:39:06.174Z,12.02
2022-10-19T18:41:38.751Z,11.96
2022-10-19T18:44:12.668Z,11.94
2022-10-19T18:46:46.356Z,11.90
2022-10-19T18:49:18.511Z,11.85
2022-10-19T18:51:55.267Z,11.82
2022-10-19T18:54:28.950Z,11.80
2022-10-19T18:57:01.035Z,11.75
2022-10-19T18:59:33.286Z,11.73
2022-10-19T19:02:07.840Z,11.69
2022-10-19T19:04:46.024Z,11.60
2022-10-19T19:07:19.491Z,11.68
2022-10-19T19:09:52.316Z,11.67
2022-10-19T19:12:25.152Z,11.64
2022-10-19T19:14:57.237Z,11.62
2022-10-19T19:17:29.131Z,11.59
2022-10-19T19:20:01.142Z,11.56
2022-10-19T19:22:33.660Z,11.51
2022-10-19T19:25:07.095Z,11.52
2022-10-19T19:30:17.539Z,11.52
2022-10-19T19:32:50.644Z,11.52
2022-10-19T19:35:22.683Z,11.49
2022-10-19T19:37:55.397Z,11.39
2022-10-19T19:40:29.479Z,11.45
2022-10-19T19:43:03.542Z,11.41
2022-10-19T19:45:36.166Z,11.39
2022-10-19T19:48:11.616Z,11.33
2022-10-19T19:50:49.944Z,11.25
2022-10-19T19:53:22.401Z,11.12
2022-10-19T19:55:54.843Z,11.16
2022-10-19T19:58:27.979Z,11.13
2022-10-19T20:01:00.349Z,11.09
2022-10-19T20:03:33.405Z,11.03
2022-10-19T20:06:05.699Z,10.90
2022-10-19T20:08:38.159Z,10.94
2022-10-19T20:11:12.324Z,10.89
2022-10-19T20:13:44.305Z,10.82
2022-10-19T20:16:19.823Z,10.77
2022-10-19T20:18:57.840Z,10.74
2022-10-19T20:21:32.493Z,10.73
2022-10-19T20:24:07.609Z,10.71
2022-10-19T20:26:40.583Z,10.68
2022-10-19T20:29:13.146Z,10.64
2022-10-19T20:31:45.306Z,10.53
2022-10-19T20:34:23.109Z,10.58
2022-10-19T20:36:58.253Z,10.56
2022-10-19T20:39:33.254Z,10.54
2022-10-19T20:42:11.015Z,10.53
2022-10-19T20:44:44.133Z,10.43
2022-10-19T20:47:16.434Z,10.51
2022-10-19T20:49:50.669Z,10.46
2022-10-19T20:52:24.073Z,10.42
2022-10-19T20:54:56.056Z,10.41
2022-10-19T20:57:27.958Z,10.29
2022-10-19T21:00:00.038Z,10.39
2022-10-19T21:02:32.319Z,10.39
2022-10-19T21:05:04.572Z,10.38
2022-10-19T21:07:36.680Z,10.24
2022-10-19T21:10:09.831Z,10.29
2022-10-19T21:12:41.711Z,10.26
2022-10-19T21:15:14.052Z,10.23
2022-10-19T21:17:48.011Z,10.19
2022-10-19T21:20:20.421Z,10.15
2022-10-19T21:22:52.335Z,10.11
2022-10-19T21:25:24.491Z,9.99
2022-10-19T21:27:56.815Z,10.05
2022-10-19T21:30:28.838Z,10.03
2022-10-19T21:33:01.014Z,10.01
2022-10-19T21:35:32.989Z,10.00
2022-10-19T21:38:05.038Z,10.00
2022-10-19T21:40:38.677Z,9.78
2022-10-19T21:43:11.493Z,9.90
2022-10-19T21:45:43.273Z,9.78
2022-10-19T21:48:15.114Z,9.86
2022-10-19T21:50:46.936Z,9.82
2022-10-19T21:53:22.707Z,9.82
2022-10-19T21:55:54.996Z,9.78
2022-10-19T21:58:27.035Z,9.76
2022-10-19T22:01:06.592Z,9.76
2022-10-19T22:03:38.766Z,9.74
2022-10-19T22:06:11.313Z,9.73
2022-10-19T22:08:45.764Z,9.71
2022-10-19T22:11:18.162Z,9.66
2022-10-19T22:13:50.386Z,9.64
2022-10-19T22:16:23.031Z,9.51
2022-10-19T22:18:55.447Z,9.55
2022-10-19T22:21:30.258Z,9.51
2022-10-19T22:24:01.612Z,9.46
2022-10-19T22:26:36.499Z,9.44
2022-10-19T22:29:09.990Z,9.43
2022-10-19T22:31:42.503Z,9.41
2022-10-19T22:34:24.566Z,9.41
2022-10-19T22:37:00.148Z,9.38
2022-10-19T22:39:34.669Z,9.36
2022-10-19T22:42:53.689Z,9.34
2022-10-19T22:45:26.284Z,9.33
2022-10-19T22:47:58.369Z,9.31
2022-10-19T22:50:30.586Z,9.28
2022-10-19T22:53:02.682Z,9.25
2022-10-19T22:55:35.408Z,9.24
2022-10-19T22:58:08.567Z,9.22
2022-10-19T23:00:40.815Z,9.20
2022-10-19T23:03:13.651Z,9.18
2022-10-19T23:05:46.176Z,9.16
2022-10-19T23:08:18.696Z,9.12
2022-10-19T23:10:50.829Z,9.08
2022-10-19T23:13:23.352Z,9.08
2022-10-19T23:15:56.034Z,9.05
2022-10-19T23:18:28.545Z,9.04
2022-10-19T23:21:03.007Z,9.01
2022-10-19T23:23:36.998Z,8.91
2022-10-19T23:26:12.769Z,8.97
2022-10-19T23:28:51.065Z,8.94
2022-10-19T23:31:26.570Z,8.92
2022-10-19T23:33:59.196Z,8.88
2022-10-19T23:36:32.482Z,8.88
2022-10-19T23:39:04.953Z,8.87
2022-10-19T23:41:36.815Z,8.85
2022-10-19T23:44:10.367Z,8.84
2022-10-19T23:46:42.447Z,8.85
2022-10-19T23:49:14.477Z,8.83
2022-10-19T23:51:46.330Z,8.82
2022-10-19T23:54:18.379Z,8.79
2022-10-19T23:56:50.634Z,8.79
2022-10-19T23:59:22.747Z,8.79
